Latest Weather Observations for Badgingarra

IDW60801

Issued at 5:53 pm WST Monday 27 January 2020 (issued every 10 minutes, with the page automatically refreshed every 10 minutes)

About weather observations | Map of weather stations | Latest weather observations for WA | Other Formats
Station Details ID: 009037 Name: BADGINGARRA RESEARCH STN Lat: -30.34 Lon: 115.54 Height: 275.0 m
Data from the previous 72 hours. | See also: Recent months at Badgingarra
Date/Time
WST
Temp
°C
App
Temp
°C
Dew
Point
°C
Rel
Hum
%
Delta-T
°C
Wind Press
QNH
hPa
Press
MSL
hPa
Rain since
9am
mm
Dir  Spd
km/h
Gust
km/h
Spd
kts
Gust
kts
27/05:30pm 38.7 31.8 6.4 14 18.2 SSW 32 39 17 21 - - 0.0
27/05:00pm 39.5 32.5 6.0 13 18.8 SSW 32 41 17 22 - - 0.0
27/04:30pm 39.9 33.0 6.3 13 19.0 SSW 32 44 17 24 - - 0.0
27/04:00pm 40.2 33.1 6.5 13 19.1 SW 33 43 18 23 - - 0.0
27/03:30pm 41.4 34.7 7.4 13 19.7 SW 32 43 17 23 - - 0.0
27/03:00pm 42.3 36.5 8.1 13 20.1 SW 28 41 15 22 - - 0.0
27/02:30pm 43.4 38.3 7.8 12 20.9 SSW 24 39 13 21 - - 0.0
27/02:00pm 42.7 39.8 4.6 10 21.3 NE 9 22 5 12 - - 0.0
27/01:30pm 43.4 39.5 5.2 10 21.6 SW 15 26 8 14 - - 0.0
27/01:00pm 42.5 39.9 5.9 11 20.8 WNW 9 20 5 11 - - 0.0
27/12:30pm 42.1 39.4 5.6 11 20.6 E 9 15 5 8 - - 0.0
27/12:00pm 41.5 38.7 5.1 11 20.4 NNE 9 19 5 10 - - 0.0
27/11:30am 40.8 38.1 5.8 12 19.7 SSE 9 13 5 7 - - 0.0
27/11:00am 39.7 37.8 9.2 16 18.0 ENE 9 19 5 10 - - 0.0
27/10:30am 37.7 35.5 9.3 18 16.6 ENE 11 24 6 13 - - 0.0
27/10:00am 36.5 34.6 10.6 21 15.4 E 11 17 6 9 - - 0.0
27/09:30am 34.8 32.3 11.2 24 14.0 E 15 20 8 11 - - 0.0
27/09:00am 33.4 30.8 11.9 27 12.9 ENE 17 22 9 12 - - 0.0
27/08:30am 30.6 27.6 12.0 32 11.0 ENE 19 24 10 13 - - 0.0
27/08:00am 29.2 26.2 12.6 36 9.9 E 20 30 11 16 - - 0.0
27/07:30am 27.7 24.1 12.9 40 8.8 E 24 32 13 17 - - 0.0
27/07:00am 26.6 23.0 13.0 43 8.0 E 24 33 13 18 - - 0.0
27/06:30am 25.7 22.6 13.5 46 7.2 E 22 32 12 17 - - 0.0
27/06:00am 25.0 21.4 13.2 48 7.0 E 24 35 13 19 - - 0.0
27/05:30am 24.8 21.1 12.7 47 7.1 E 24 32 13 17 - - 0.0
27/05:00am 25.2 21.4 12.4 45 7.4 E 24 33 13 18 - - 0.0
27/04:30am 25.5 21.6 12.0 43 7.8 E 24 33 13 18 - - 0.0
27/04:00am 25.8 21.5 11.9 42 8.0 E 26 37 14 20 - - 0.0
27/03:30am 26.1 22.2 12.2 42 8.1 E 24 35 13 19 - - 0.0
27/03:00am 26.7 22.5 12.4 41 8.4 ESE 26 35 14 19 - - 0.0
27/02:30am 26.1 21.9 13.6 46 7.4 SE 28 37 15 20 - - 0.0
27/02:23am 26.7 22.6 13.8 45 7.7 SE 28 41 15 22 - - 0.0
27/02:00am 25.4 23.4 13.9 49 6.9 SE 17 22 9 12 - - 0.0
27/01:30am 24.8 22.3 14.0 51 6.4 SSE 20 22 11 12 - - 0.0
27/01:00am 23.4 21.0 13.8 54 5.7 SSE 19 20 10 11 - - 0.0
27/12:30am 24.3 21.4 14.1 53 6.1 SSE 22 28 12 15 - - 0.0
27/12:00am 24.4 21.2 14.2 53 6.1 SSE 24 28 13 15 - - 0.0
 
Date/Time
WST
Temp
°C
App
Temp
°C
Dew
Point
°C
Rel
Hum
%
Delta-T
°C
Wind Press
QNH
hPa
Press
MSL
hPa
Rain since
9am
mm
Dir  Spd
km/h
Gust
km/h
Spd
kts
Gust
kts
26/11:30pm 24.2 20.9 14.0 53 6.1 SSE 24 28 13 15 - - 0.0
26/11:00pm 24.8 21.5 14.0 51 6.4 SSE 24 32 13 17 - - 0.0
26/10:30pm 24.9 20.9 14.1 51 6.5 S 28 33 15 18 - - 0.0
26/10:00pm 24.8 21.1 14.0 51 6.4 S 26 30 14 16 - - 0.0
26/09:30pm 25.1 21.2 14.3 51 6.5 S 28 33 15 18 - - 0.0
26/09:00pm 25.5 21.9 14.3 50 6.7 S 26 33 14 18 - - 0.0
26/08:30pm 26.6 22.3 14.4 47 7.4 S 30 33 16 18 - - 0.0
26/08:00pm 27.4 23.0 14.1 44 8.0 S 30 37 16 20 - - 0.0
26/07:30pm 28.6 23.9 14.4 41 8.7 S 32 35 17 19 - - 0.0
26/07:00pm 30.3 24.6 13.1 34 10.3 S 35 41 19 22 - - 0.0
26/06:30pm 32.5 26.9 11.6 28 12.4 S 32 39 17 21 - - 0.0
26/06:00pm 34.3 27.6 9.5 22 14.3 SSW 35 43 19 23 - - 0.0
26/05:30pm 35.6 29.2 10.6 22 14.8 SSW 35 43 19 23 - - 0.0
26/05:00pm 35.7 28.5 10.7 22 14.8 SSW 39 48 21 26 - - 0.0
26/04:30pm 36.6 29.4 10.7 21 15.4 SSW 39 52 21 28 - - 0.0
26/04:00pm 37.7 31.1 10.1 19 16.3 SSW 35 46 19 25 - - 0.0
26/03:30pm 39.3 33.4 5.8 13 18.8 SSW 26 37 14 20 - - 0.0
26/03:00pm 39.6 36.5 3.7 11 19.5 SSW 9 22 5 12 - - 0.0
26/02:30pm 39.1 34.6 1.9 10 19.6 SE 15 24 8 13 - - 0.0
26/02:00pm 39.4 36.3 3.5 11 19.4 SSW 9 20 5 11 - - 0.0
26/01:30pm 39.8 36.7 3.8 11 19.6 WNW 9 22 5 12 - - 0.0
26/01:00pm 38.0 33.9 2.5 11 18.8 SSW 13 22 7 12 - - 0.0
26/12:30pm 37.8 34.7 3.5 12 18.4 SE 9 22 5 12 - - 0.0
26/12:00pm 36.7 33.1 2.7 12 17.9 SSE 11 20 6 11 - - 0.0
26/11:30am 36.7 33.3 3.8 13 17.6 E 11 19 6 10 - - 0.0
26/11:00am 35.9 32.0 8.7 19 15.7 E 19 26 10 14 - - 0.0
26/10:30am 34.8 31.0 9.9 22 14.5 E 20 26 11 14 - - 0.0
26/10:00am 33.1 29.3 11.0 26 13.0 E 22 30 12 16 - - 0.0
26/09:30am 31.5 28.7 11.3 29 11.9 E 17 24 9 13 - - 0.0
26/09:00am 29.2 26.5 13.0 37 9.7 ESE 19 26 10 14 - - -
26/08:30am 27.6 25.4 14.3 44 8.1 ESE 19 28 10 15 - - -
26/08:00am 25.1 22.4 14.6 52 6.3 ESE 22 32 12 17 - - -
26/07:30am 24.1 21.1 14.8 56 5.6 ESE 24 32 13 17 - - -
26/07:00am 22.4 20.4 15.0 63 4.4 SE 19 26 10 14 - - -
26/06:30am 20.8 17.5 14.9 69 3.5 SE 26 33 14 18 - - -
26/06:00am 18.1 17.0 15.2 83 1.7 SSE 15 24 8 13 - - -
26/05:30am 17.8 16.7 16.3 91 0.9 SE 17 19 9 10 - - -
26/05:00am 17.4 17.1 17.4 100 0.0 SSE 15 20 8 11 - - 0.0
26/04:30am 17.6 17.0 17.6 100 0.0 SSE 17 19 9 10 - - 0.0
26/04:00am 17.7 16.8 17.7 100 0.0 SSE 19 22 10 12 - - 0.0
26/03:30am 17.8 16.7 17.8 100 0.0 SSE 20 26 11 14 - - 0.0
26/03:00am 18.0 16.6 18.0 100 0.0 S 22 26 12 14 - - 0.0
26/02:30am 17.8 16.1 17.2 96 0.4 S 22 28 12 15 - - 0.0
26/02:00am 18.0 15.0 16.9 93 0.7 SSE 28 33 15 18 - - 0.0
26/01:30am 18.3 15.4 17.0 92 0.8 SSE 28 32 15 17 - - 0.0
26/01:00am 18.2 15.2 16.9 92 0.8 SSE 28 33 15 18 - - 0.0
26/12:30am 18.4 15.1 16.9 91 0.9 SSE 30 35 16 19 - - 0.0
26/12:00am 18.9 15.4 16.5 86 1.5 S 30 39 16 21 - - 0.0
 
Date/Time
WST
Temp
°C
App
Temp
°C
Dew
Point
°C
Rel
Hum
%
Delta-T
°C
Wind Press
QNH
hPa
Press
MSL
hPa
Rain since
9am
mm
Dir  Spd
km/h
Gust
km/h
Spd
kts
Gust
kts
25/11:30pm 19.0 15.2 15.7 81 2.0 S 30 35 16 19 - - 0.0
25/11:00pm 19.4 15.8 15.3 77 2.4 S 28 33 15 18 - - 0.0
25/10:30pm 19.8 16.9 15.2 75 2.7 S 24 28 13 15 - - 0.0
25/10:00pm 20.4 17.1 15.0 71 3.2 S 26 32 14 17 - - 0.0
25/09:30pm 20.9 17.4 14.5 67 3.8 S 26 30 14 16 - - 0.0
25/09:00pm 21.6 17.8 14.7 65 4.1 S 28 32 15 17 - - 0.0
25/08:30pm 22.2 18.1 14.8 63 4.4 S 30 35 16 19 - - 0.0
25/08:00pm 22.9 18.1 14.7 60 4.9 S 33 39 18 21 - - 0.0
25/07:30pm 24.7 19.6 13.0 48 6.9 S 32 41 17 22 - - 0.0
25/07:00pm 26.4 20.2 11.3 39 8.7 S 35 43 19 23 - - 0.0
25/06:30pm 28.2 21.9 10.9 34 10.0 S 35 43 19 23 - - 0.0
25/06:00pm 29.6 22.7 10.2 30 11.1 SSW 37 44 20 24 - - 0.0
25/05:30pm 31.2 24.2 10.0 27 12.2 SSW 37 46 20 25 - - 0.0
25/05:00pm 32.7 26.0 9.5 24 13.3 SSW 35 44 19 24 - - 0.0
25/04:30pm 34.7 28.1 8.4 20 15.0 SSW 33 41 18 22 - - 0.0
25/04:00pm 35.1 28.6 8.0 19 15.4 SSW 32 43 17 23 - - 0.0
25/03:30pm 36.1 29.8 8.8 19 15.8 SW 32 43 17 23 - - 0.0
25/03:00pm 35.7 29.5 10.0 21 15.1 SSW 33 50 18 27 - - 0.0
25/02:30pm 36.5 29.9 9.9 20 15.6 SW 35 56 19 30 - - 0.0
25/02:26pm 35.9 29.1 9.4 20 15.4 SW 35 56 19 30 - - 0.0
25/02:13pm 36.3 31.9 10.5 21 15.3 SW 24 44 13 24 - - 0.0
25/02:00pm 36.5 32.0 0.0 10 18.4 SSW 13 22 7 12 - - 0.0
25/01:30pm 36.9 32.9 0.3 10 18.6 SSE 11 22 6 12 - - 0.0
25/01:00pm 36.2 32.5 -0.2 10 18.3 SSE 9 17 5 9 - - 0.0
25/12:30pm 35.5 30.8 0.6 11 17.7 S 15 28 8 15 - - 0.0
25/12:00pm 36.0 32.4 0.9 11 17.9 S 9 15 5 8 - - 0.0
25/11:30am 35.3 32.2 1.6 12 17.3 SE 7 17 4 9 - - 0.0
25/11:00am 33.5 30.2 -1.0 11 16.8 E 6 11 3 6 - - 0.0
25/10:30am 32.7 29.8 4.5 17 15.0 ENE 9 22 5 12 - - 0.0
25/10:00am 32.5 28.3 5.9 19 14.4 E 17 22 9 12 - - 0.0
25/09:30am 31.9 28.2 6.2 20 14.0 E 15 20 8 11 - - 0.0
25/09:00am 30.1 27.2 6.7 23 12.7 ESE 11 15 6 8 - - 0.0
25/08:30am 28.1 25.0 7.4 27 11.2 E 13 17 7 9 - - 0.0
25/08:00am 26.0 22.8 8.5 33 9.6 ESE 15 20 8 11 - - 0.0
25/07:30am 23.7 21.1 9.3 40 7.9 SE 13 17 7 9 - - 0.0
25/07:00am 20.6 18.5 11.2 55 5.2 SE 13 17 7 9 - - 0.0
25/06:30am 19.0 16.9 11.1 60 4.4 SSE 13 19 7 10 - - 0.0
25/06:00am 17.9 15.0 11.0 64 3.8 SE 17 20 9 11 - - 0.0
25/05:30am 16.6 14.4 10.9 69 3.1 SSE 13 15 7 8 - - 0.0
25/05:00am 16.7 14.2 11.2 70 3.0 SSE 15 19 8 10 - - 0.0
25/04:30am 17.1 14.4 11.6 70 3.0 S 17 20 9 11 - - 0.0
25/04:00am 16.8 13.7 12.3 75 2.5 SSE 20 24 11 13 - - 0.0
25/03:30am 16.7 13.8 12.8 78 2.2 SSE 20 22 11 12 - - 0.0
25/03:00am 16.9 13.2 12.8 77 2.3 SSE 24 28 13 15 - - 0.0
25/02:30am 17.2 13.7 13.3 78 2.2 SSE 24 30 13 16 - - 0.0
25/02:00am 17.4 13.8 14.3 82 1.8 S 26 32 14 17 - - 0.0
25/01:30am 17.4 14.2 14.3 82 1.8 S 24 32 13 17 - - 0.0
25/01:00am 17.9 14.2 13.8 77 2.4 SSE 26 32 14 17 - - 0.0
25/12:30am 18.4 13.5 12.4 68 3.4 S 30 37 16 20 - - 0.0
25/12:00am 19.0 14.5 11.3 61 4.3 S 26 32 14 17 - - 0.0
 
Date/Time
WST
Temp
°C
App
Temp
°C
Dew
Point
°C
Rel
Hum
%
Delta-T
°C
Wind Press
QNH
hPa
Press
MSL
hPa
Rain since
9am
mm
Dir  Spd
km/h
Gust
km/h
Spd
kts
Gust
kts
24/11:30pm 19.6 14.6 10.9 57 4.8 S 28 33 15 18 - - 0.0
24/11:00pm 20.5 15.0 10.6 53 5.5 S 30 37 16 20 - - 0.0
24/10:30pm 21.3 15.3 10.2 49 6.1 S 32 39 17 21 - - 0.0
24/10:00pm 21.6 15.8 10.7 50 6.1 S 32 39 17 21 - - 0.0
24/09:30pm 21.6 16.0 11.6 53 5.6 S 32 39 17 21 - - 0.0
24/09:00pm 22.5 16.6 11.3 49 6.3 S 33 43 18 23 - - 0.0
24/08:30pm 23.5 17.4 10.6 44 7.2 S 33 37 18 20 - - 0.0
24/08:00pm 24.4 18.2 9.9 40 8.1 S 33 41 18 22 - - 0.0
24/07:30pm 26.0 19.1 8.9 34 9.4 S 35 46 19 25 - - 0.0
24/07:00pm 27.6 20.8 9.4 32 10.2 SSW 35 44 19 24 - - 0.0
24/06:30pm 29.0 22.3 9.7 30 10.9 SSW 35 43 19 23 - - 0.0
24/06:00pm 30.3 23.6 9.8 28 11.7 S 35 43 19 23 - - 0.0

Other formats

Comma delimited format used in spreadsheet applications
http://www.bom.gov.au/fwo/IDW60801/IDW60801.94603.axf

JavaScript Object Notation format (JSON) in row-major order
http://www.bom.gov.au/fwo/IDW60801/IDW60801.94603.json

Data quality

Most of these data are generated automatically and are frequently updated. Quality checks on data are not normally performed. It is possible for incorrect values to appear. Refer to information at About Latest Weather Observations and please check the disclaimer before using these data.